createdAt,value
2023-01-01T00:01:43.996Z,85.98
2023-01-01T00:04:17.216Z,85.94
2023-01-01T00:06:49.700Z,85.85
2023-01-01T00:09:39.714Z,85.86
2023-01-01T00:12:12.282Z,85.41
2023-01-01T00:14:44.626Z,85.56
2023-01-01T00:17:16.927Z,85.63
2023-01-01T00:19:49.226Z,85.49
2023-01-01T00:22:53.266Z,85.48
2023-01-01T00:25:15.313Z,85.41
2023-01-01T00:27:47.695Z,85.22
2023-01-01T00:30:20.431Z,85.09
2023-01-01T00:32:54.843Z,85.16
2023-01-01T00:35:29.345Z,85.13
2023-01-01T00:38:01.802Z,85.18
2023-01-01T00:40:34.447Z,85.09
2023-01-01T00:43:06.821Z,85.15
2023-01-01T00:45:39.115Z,84.77
2023-01-01T00:48:11.439Z,85.03
2023-01-01T00:50:44.016Z,84.94
2023-01-01T00:53:16.471Z,84.88
2023-01-01T00:55:51.452Z,84.86
2023-01-01T00:58:24.492Z,84.84
2023-01-01T01:00:57.154Z,84.88
2023-01-01T01:03:29.651Z,84.98
2023-01-01T01:06:09.959Z,84.67
2023-01-01T01:08:43.965Z,84.86
2023-01-01T01:11:18.112Z,84.55
2023-01-01T01:13:51.811Z,84.36
2023-01-01T01:16:27.891Z,84.47
2023-01-01T01:19:01.907Z,84.30
2023-01-01T01:21:35.718Z,84.53
2023-01-01T01:24:09.171Z,84.47
2023-01-01T01:26:41.470Z,84.47
2023-01-01T01:29:13.802Z,84.36
2023-01-01T01:31:46.154Z,84.10
2023-01-01T01:34:22.479Z,84.05
2023-01-01T01:36:58.061Z,84.14
2023-01-01T01:39:30.649Z,84.04
2023-01-01T01:42:03.839Z,84.00
2023-01-01T01:44:59.092Z,83.92
2023-01-01T01:47:36.911Z,83.85
2023-01-01T01:50:14.128Z,83.92
2023-01-01T01:52:55.501Z,83.81
2023-01-01T01:55:30.961Z,83.51
2023-01-01T01:58:03.894Z,83.42
2023-01-01T02:00:36.156Z,83.50
2023-01-01T02:03:11.169Z,83.62
2023-01-01T02:05:44.374Z,83.54
2023-01-01T02:08:17.313Z,83.29
2023-01-01T02:10:49.913Z,83.40
2023-01-01T02:13:22.447Z,83.34
2023-01-01T02:15:58.412Z,83.38
2023-01-01T02:18:49.818Z,83.06
2023-01-01T02:21:26.383Z,83.01
2023-01-01T02:24:37.336Z,82.98
2023-01-01T02:27:17.264Z,82.77
2023-01-01T02:29:54.013Z,82.94
2023-01-01T02:32:32.580Z,82.98
2023-01-01T02:35:29.664Z,82.59
2023-01-01T02:38:06.155Z,82.76
2023-01-01T02:40:42.554Z,82.86
2023-01-01T02:43:17.908Z,82.52
2023-01-01T02:45:54.260Z,82.54
2023-01-01T02:48:47.676Z,82.46
2023-01-01T02:51:30.290Z,82.38
2023-01-01T02:54:12.575Z,82.25
2023-01-01T02:56:49.980Z,82.27
2023-01-01T02:59:50.463Z,82.31
2023-01-01T03:02:31.079Z,82.15
2023-01-01T03:05:11.285Z,81.99
2023-01-01T03:07:58.944Z,82.15
2023-01-01T03:10:41.489Z,82.04
2023-01-01T03:13:21.791Z,81.83
2023-01-01T03:16:01.113Z,81.89
2023-01-01T03:18:38.284Z,81.92
2023-01-01T03:23:50.168Z,81.45
2023-01-01T03:26:27.619Z,81.65
2023-01-01T03:29:03.472Z,81.42
2023-01-01T03:31:36.894Z,80.90
2023-01-01T03:34:13.514Z,80.90
2023-01-01T03:36:49.626Z,81.09
2023-01-01T03:39:26.533Z,80.40
2023-01-01T03:42:07.921Z,80.50
2023-01-01T03:44:47.666Z,80.94
2023-01-01T03:47:20.417Z,80.87
2023-01-01T03:49:52.894Z,80.58
2023-01-01T03:52:32.614Z,80.71
2023-01-01T03:55:10.419Z,80.21
2023-01-01T03:57:50.705Z,80.42
2023-01-01T04:00:28.236Z,80.28
2023-01-01T04:03:05.330Z,80.25
2023-01-01T04:05:40.305Z,80.23
2023-01-01T04:08:15.702Z,80.13
2023-01-01T04:10:52.720Z,79.80
2023-01-01T04:13:25.374Z,79.73
2023-01-01T04:15:57.711Z,79.74
2023-01-01T04:18:30.111Z,79.56
2023-01-01T04:21:02.360Z,79.50
2023-01-01T04:23:34.654Z,79.67
2023-01-01T04:26:07.486Z,79.52
2023-01-01T04:28:39.733Z,79.30
2023-01-01T04:31:12.896Z,79.31
2023-01-01T04:33:45.165Z,79.15
2023-01-01T04:36:17.552Z,78.90
2023-01-01T04:38:49.890Z,79.17
2023-01-01T04:41:22.215Z,78.93
2023-01-01T04:43:54.636Z,79.25
2023-01-01T04:46:27.216Z,78.81
2023-01-01T04:48:59.687Z,79.13
2023-01-01T04:51:32.122Z,79.03
2023-01-01T04:54:04.590Z,79.07
2023-01-01T04:56:36.960Z,78.65
2023-01-01T04:59:09.597Z,78.76
2023-01-01T05:01:42.088Z,78.72
2023-01-01T05:04:17.016Z,78.82
2023-01-01T05:06:49.281Z,78.58
2023-01-01T05:09:21.594Z,78.26
2023-01-01T05:11:55.358Z,78.61
2023-01-01T05:14:27.753Z,78.53
2023-01-01T05:16:59.995Z,78.46
2023-01-01T05:19:32.261Z,78.28
2023-01-01T05:22:10.472Z,78.16
2023-01-01T05:24:43.408Z,78.01
2023-01-01T05:27:15.755Z,77.97
2023-01-01T05:29:48.153Z,78.00
2023-01-01T05:32:20.551Z,77.71
2023-01-01T05:34:53.334Z,77.70
2023-01-01T05:37:25.783Z,77.57
2023-01-01T05:39:57.951Z,77.65
2023-01-01T05:42:30.248Z,77.41
2023-01-01T05:45:02.624Z,77.46
2023-01-01T05:47:34.969Z,77.52
2023-01-01T05:52:40.364Z,77.12
2023-01-01T05:55:12.996Z,77.26
2023-01-01T05:57:45.255Z,77.18
2023-01-01T06:00:19.900Z,77.19
2023-01-01T06:02:52.333Z,77.08
2023-01-01T06:05:24.803Z,77.21
2023-01-01T06:07:57.498Z,76.84
2023-01-01T06:10:29.737Z,76.85
2023-01-01T06:13:02.076Z,76.97
2023-01-01T06:15:34.388Z,76.85
2023-01-01T06:18:07.055Z,76.89
2023-01-01T06:20:39.430Z,76.59
2023-01-01T06:23:11.832Z,76.76
2023-01-01T06:25:44.174Z,76.66
2023-01-01T06:28:16.476Z,76.73
2023-01-01T06:30:50.183Z,76.45
2023-01-01T06:33:22.544Z,76.52
2023-01-01T06:35:54.770Z,76.62
2023-01-01T06:38:27.435Z,76.48
2023-01-01T06:41:00.952Z,76.40
2023-01-01T06:43:35.274Z,76.42
2023-01-01T06:46:09.588Z,76.31
2023-01-01T06:48:41.853Z,76.20
2023-01-01T06:51:16.175Z,76.37
2023-01-01T06:53:48.933Z,76.33
2023-01-01T06:56:21.925Z,76.17
2023-01-01T06:58:54.705Z,76.10
2023-01-01T07:01:30.028Z,76.13
2023-01-01T07:04:04.958Z,76.14
2023-01-01T07:06:38.425Z,76.29
2023-01-01T07:09:11.509Z,76.33
2023-01-01T07:11:43.811Z,76.17
2023-01-01T07:14:16.105Z,75.93
2023-01-01T07:16:48.508Z,75.90
2023-01-01T07:19:20.799Z,76.09
2023-01-01T07:21:56.655Z,76.06
2023-01-01T07:24:29.029Z,75.72
2023-01-01T07:27:01.409Z,75.76
2023-01-01T07:29:33.853Z,75.79
2023-01-01T07:32:07.736Z,75.51
2023-01-01T07:34:40.038Z,75.84
2023-01-01T07:37:12.275Z,75.65
2023-01-01T07:39:44.601Z,75.56
2023-01-01T07:42:16.875Z,75.69
2023-01-01T07:44:49.275Z,75.37
2023-01-01T07:47:25.276Z,75.46
2023-01-01T07:49:57.571Z,75.44
2023-01-01T07:52:29.841Z,75.45
2023-01-01T07:55:02.168Z,75.35
2023-01-01T07:57:34.512Z,75.58
2023-01-01T08:00:09.172Z,75.24
2023-01-01T08:02:45.292Z,75.63
2023-01-01T08:05:24.296Z,75.49
2023-01-01T08:07:58.826Z,75.28
2023-01-01T08:10:32.107Z,74.99
2023-01-01T08:13:06.221Z,75.16
2023-01-01T08:15:38.580Z,75.12
2023-01-01T08:18:12.185Z,74.90
2023-01-01T08:20:44.481Z,74.73
2023-01-01T08:23:16.827Z,74.93
2023-01-01T08:25:49.147Z,75.13
2023-01-01T08:28:21.480Z,74.68
2023-01-01T08:30:53.920Z,73.88
2023-01-01T08:33:26.320Z,74.05
2023-01-01T08:35:58.748Z,74.61
2023-01-01T08:38:31.093Z,74.27
2023-01-01T08:41:03.422Z,74.02
2023-01-01T08:43:35.687Z,74.22
2023-01-01T08:46:08.908Z,74.13
2023-01-01T08:48:41.274Z,73.83
2023-01-01T08:51:13.647Z,73.87
2023-01-01T08:53:50.808Z,73.26
2023-01-01T08:56:23.727Z,73.46
2023-01-01T08:59:01.811Z,73.38
2023-01-01T09:01:36.487Z,73.21
2023-01-01T09:04:15.738Z,72.71
2023-01-01T09:06:48.472Z,72.71
2023-01-01T09:09:24.303Z,72.59
2023-01-01T09:12:06.229Z,72.75
2023-01-01T09:14:38.747Z,72.99
2023-01-01T09:17:11.246Z,72.89
2023-01-01T09:19:43.594Z,73.10
2023-01-01T09:22:16.286Z,73.06
2023-01-01T09:24:48.544Z,72.96
2023-01-01T09:27:20.922Z,72.52
2023-01-01T09:29:53.204Z,72.51
2023-01-01T09:32:25.597Z,72.56
2023-01-01T09:34:57.964Z,72.58
2023-01-01T09:37:31.436Z,72.39
2023-01-01T09:40:03.797Z,72.53
2023-01-01T09:42:42.354Z,72.31
2023-01-01T09:45:26.970Z,72.20
2023-01-01T09:48:06.403Z,72.14
2023-01-01T09:50:42.585Z,72.08
2023-01-01T09:53:23.842Z,71.63
2023-01-01T09:56:00.261Z,72.19
2023-01-01T09:58:37.365Z,71.80
2023-01-01T10:01:20.500Z,71.83
2023-01-01T10:04:00.854Z,71.62
2023-01-01T10:06:36.149Z,71.39
2023-01-01T10:09:20.783Z,71.29
2023-01-01T10:12:01.618Z,71.45
2023-01-01T10:14:37.330Z,71.00
2023-01-01T10:17:18.253Z,71.19
2023-01-01T10:19:53.697Z,70.90
2023-01-01T10:22:32.163Z,70.97
2023-01-01T10:25:10.278Z,70.80
2023-01-01T10:27:46.681Z,70.87
2023-01-01T10:30:21.404Z,70.80
2023-01-01T10:32:55.429Z,70.94
2023-01-01T10:35:34.940Z,70.92
2023-01-01T10:38:08.160Z,70.92
2023-01-01T10:40:40.843Z,70.83
2023-01-01T10:43:13.983Z,70.81
2023-01-01T10:45:50.517Z,70.54
2023-01-01T10:48:24.697Z,70.60
2023-01-01T10:50:59.653Z,70.31
2023-01-01T10:53:35.791Z,70.55
2023-01-01T10:56:12.264Z,70.61
2023-01-01T10:58:47.266Z,70.32
2023-01-01T11:01:26.102Z,70.54
2023-01-01T11:04:01.796Z,70.70
2023-01-01T11:06:37.435Z,70.55
2023-01-01T11:09:23.186Z,70.28
2023-01-01T11:12:08.093Z,69.99
2023-01-01T11:14:45.410Z,70.21
2023-01-01T11:17:24.027Z,70.17
2023-01-01T11:20:02.149Z,69.97
2023-01-01T11:22:46.961Z,70.24
2023-01-01T11:25:28.567Z,69.85
2023-01-01T11:28:20.939Z,70.24
2023-01-01T11:31:05.713Z,69.82
2023-01-01T11:33:44.536Z,69.75
2023-01-01T11:36:24.577Z,69.85
2023-01-01T11:39:21.295Z,69.80
2023-01-01T11:41:55.340Z,69.73
2023-01-01T11:44:36.499Z,69.81
2023-01-01T11:47:20.929Z,69.57
2023-01-01T11:49:58.596Z,69.58
2023-01-01T11:52:37.818Z,69.73
2023-01-01T11:55:20.677Z,69.63
2023-01-01T11:58:04.411Z,69.67
2023-01-01T12:00:38.724Z,69.56
2023-01-01T12:03:21.123Z,69.75
2023-01-01T12:05:57.730Z,69.65
2023-01-01T12:08:38.605Z,69.70
2023-01-01T12:11:20.243Z,69.13
2023-01-01T12:13:58.094Z,69.70
2023-01-01T12:16:47.686Z,69.42
2023-01-01T12:19:24.698Z,69.36
2023-01-01T12:22:01.106Z,69.54
2023-01-01T12:24:36.436Z,69.50
2023-01-01T12:27:18.391Z,69.45
2023-01-01T12:30:04.925Z,69.31
2023-01-01T12:32:54.132Z,69.18
2023-01-01T12:35:37.181Z,69.16
2023-01-01T12:38:20.357Z,69.21
2023-01-01T12:40:58.964Z,69.29
2023-01-01T12:43:43.712Z,69.04
2023-01-01T12:46:31.650Z,69.14
2023-01-01T12:49:50.158Z,69.17
2023-01-01T12:52:36.851Z,69.02
2023-01-01T12:55:33.713Z,68.96
2023-01-01T12:58:13.284Z,68.83
2023-01-01T13:00:52.312Z,68.99
2023-01-01T13:03:29.528Z,68.87
2023-01-01T13:06:03.798Z,68.84
2023-01-01T13:08:39.313Z,68.89
2023-01-01T13:11:13.991Z,68.67
2023-01-01T13:13:46.556Z,68.81
2023-01-01T13:16:36.728Z,68.80
2023-01-01T13:19:25.256Z,68.84
2023-01-01T13:21:58.530Z,68.51
2023-01-01T13:24:30.849Z,68.58
2023-01-01T13:27:07.349Z,68.66
2023-01-01T13:29:50.649Z,68.69
2023-01-01T13:32:22.977Z,68.75
2023-01-01T13:35:17.129Z,68.87
2023-01-01T13:37:52.479Z,68.78
2023-01-01T13:43:36.980Z,68.73
2023-01-01T13:46:12.964Z,68.42
2023-01-01T13:49:16.898Z,68.78
2023-01-01T13:52:14.000Z,68.78
2023-01-01T13:55:18.870Z,68.83
2023-01-01T13:58:28.432Z,68.95
2023-01-01T14:01:25.304Z,68.84
2023-01-01T14:04:00.743Z,68.68
2023-01-01T14:06:38.747Z,68.84
2023-01-01T14:09:17.482Z,68.71
2023-01-01T14:11:49.797Z,68.71
2023-01-01T14:14:28.429Z,68.77
2023-01-01T14:17:03.581Z,68.70
2023-01-01T14:19:36.541Z,68.60
2023-01-01T14:22:11.668Z,68.72
2023-01-01T14:24:47.486Z,68.53
2023-01-01T14:27:23.033Z,68.50
2023-01-01T14:29:55.505Z,68.45
2023-01-01T14:32:32.332Z,68.51
2023-01-01T14:35:05.225Z,68.48
2023-01-01T14:37:37.384Z,68.55
2023-01-01T14:40:21.023Z,68.33
2023-01-01T14:43:01.201Z,68.21
2023-01-01T14:45:36.495Z,68.33
2023-01-01T14:48:18.685Z,68.43
2023-01-01T14:50:53.888Z,68.42
2023-01-01T14:53:33.768Z,68.60
2023-01-01T14:56:07.283Z,68.58
2023-01-01T14:58:43.221Z,68.51
2023-01-01T15:01:23.181Z,68.52
2023-01-01T15:04:04.069Z,68.57
2023-01-01T15:06:41.255Z,68.47
2023-01-01T15:09:18.133Z,68.51
2023-01-01T15:11:52.034Z,68.48
2023-01-01T15:14:38.013Z,68.61
2023-01-01T15:17:11.564Z,68.60
2023-01-01T15:19:46.316Z,68.37
2023-01-01T15:22:20.065Z,68.37
2023-01-01T15:24:52.497Z,68.44
2023-01-01T15:27:29.019Z,68.52
2023-01-01T15:30:01.958Z,68.55
2023-01-01T15:32:36.909Z,68.71
2023-01-01T15:35:20.086Z,68.67
2023-01-01T15:37:56.352Z,68.63
2023-01-01T15:40:37.074Z,68.69
2023-01-01T15:43:23.475Z,68.73
2023-01-01T15:46:01.979Z,68.80
2023-01-01T15:48:37.627Z,68.79
2023-01-01T15:51:21.426Z,68.69
2023-01-01T15:53:57.588Z,68.60
2023-01-01T15:56:32.664Z,68.58
2023-01-01T15:59:15.224Z,68.40
2023-01-01T16:01:47.564Z,68.56
2023-01-01T16:04:28.347Z,68.68
2023-01-01T16:07:01.625Z,68.80
2023-01-01T16:09:37.211Z,68.78
2023-01-01T16:12:11.212Z,68.88
2023-01-01T16:14:43.353Z,68.82
2023-01-01T16:17:18.753Z,68.78
2023-01-01T16:19:52.258Z,68.77
2023-01-01T16:22:24.490Z,68.86
2023-01-01T16:24:56.632Z,68.88
2023-01-01T16:27:28.707Z,68.71
2023-01-01T16:30:00.819Z,68.66
2023-01-01T16:32:33.088Z,68.76
2023-01-01T16:35:11.667Z,68.82
2023-01-01T16:37:44.206Z,68.87
2023-01-01T16:40:16.741Z,68.88
2023-01-01T16:42:48.833Z,68.97
2023-01-01T16:45:21.428Z,69.07
2023-01-01T16:47:54.908Z,69.16
2023-01-01T16:50:27.028Z,69.05
2023-01-01T16:53:00.233Z,68.90
2023-01-01T16:55:32.349Z,68.85
2023-01-01T16:58:46.847Z,68.85
2023-01-01T17:01:02.929Z,68.79
2023-01-01T17:03:35.794Z,68.99
2023-01-01T17:06:10.148Z,69.15
2023-01-01T17:08:42.311Z,69.21
2023-01-01T17:11:16.871Z,69.17
2023-01-01T17:13:50.509Z,69.31
2023-01-01T17:16:27.273Z,69.22
2023-01-01T17:19:17.916Z,69.13
2023-01-01T17:21:51.551Z,69.27
2023-01-01T17:24:24.033Z,69.21
2023-01-01T17:26:56.769Z,69.14
2023-01-01T17:29:29.294Z,69.01
2023-01-01T17:32:01.461Z,69.16
2023-01-01T17:34:33.579Z,69.40
2023-01-01T17:37:05.749Z,69.28
2023-01-01T17:39:37.915Z,69.40
2023-01-01T17:42:10.001Z,69.65
2023-01-01T17:44:42.173Z,69.59
2023-01-01T17:47:14.313Z,69.60
2023-01-01T17:49:46.665Z,69.58
2023-01-01T17:52:18.755Z,69.53
2023-01-01T17:54:51.905Z,69.52
2023-01-01T17:57:25.371Z,69.52
2023-01-01T17:59:59.428Z,69.45
2023-01-01T18:02:33.822Z,69.52
2023-01-01T18:05:06.744Z,69.66
2023-01-01T18:07:38.881Z,69.81
2023-01-01T18:10:11.745Z,69.65
2023-01-01T18:12:43.940Z,69.81
2023-01-01T18:15:16.084Z,69.88
2023-01-01T18:17:48.350Z,69.86
2023-01-01T18:20:20.752Z,69.79
2023-01-01T18:22:56.509Z,69.61
2023-01-01T18:25:28.778Z,69.66
2023-01-01T18:28:00.963Z,69.71
2023-01-01T18:30:33.811Z,69.75
2023-01-01T18:33:06.263Z,69.95
2023-01-01T18:35:38.491Z,69.93
2023-01-01T18:38:13.613Z,70.02
2023-01-01T18:41:00.674Z,70.03
2023-01-01T18:43:32.788Z,70.00
2023-01-01T18:46:09.198Z,70.06
2023-01-01T18:48:42.804Z,70.05
2023-01-01T18:51:19.994Z,69.80
2023-01-01T18:53:53.115Z,69.87
2023-01-01T18:56:26.345Z,69.78
2023-01-01T18:59:00.191Z,69.99
2023-01-01T19:01:35.516Z,69.88
2023-01-01T19:04:12.793Z,69.96
2023-01-01T19:06:45.014Z,70.11
2023-01-01T19:09:25.488Z,70.12
2023-01-01T19:12:00.355Z,70.14
2023-01-01T19:14:33.279Z,70.24
2023-01-01T19:17:14.096Z,70.25
2023-01-01T19:19:47.739Z,70.25
2023-01-01T19:22:29.513Z,69.97
2023-01-01T19:25:02.901Z,69.93
2023-01-01T19:27:35.822Z,70.06
2023-01-01T19:30:23.458Z,69.95
2023-01-01T19:32:55.774Z,70.17
2023-01-01T19:35:27.913Z,70.20
2023-01-01T19:38:00.116Z,70.34
2023-01-01T19:40:32.403Z,70.43
2023-01-01T19:43:06.881Z,70.49
2023-01-01T19:45:39.117Z,70.48
2023-01-01T19:48:11.315Z,70.43
2023-01-01T19:50:43.403Z,70.27
2023-01-01T19:53:15.607Z,70.31
2023-01-01T19:55:47.740Z,70.55
2023-01-01T19:58:22.293Z,70.51
2023-01-01T20:00:55.319Z,70.48
2023-01-01T20:03:53.454Z,70.69
2023-01-01T20:06:19.732Z,70.72
2023-01-01T20:08:51.961Z,70.88
2023-01-01T20:11:24.051Z,70.81
2023-01-01T20:13:56.420Z,70.81
2023-01-01T20:16:28.615Z,70.78
2023-01-01T20:19:00.858Z,70.78
2023-01-01T20:21:50.872Z,70.52
2023-01-01T20:24:23.036Z,70.70
2023-01-01T20:26:56.529Z,70.84
2023-01-01T20:29:28.605Z,70.78
2023-01-01T20:32:00.883Z,71.01
2023-01-01T20:34:33.148Z,70.97
2023-01-01T20:37:23.156Z,71.12
2023-01-01T20:39:55.375Z,71.19
2023-01-01T20:42:28.258Z,71.17
2023-01-01T20:45:00.485Z,71.55
2023-01-01T20:47:32.582Z,71.17
2023-01-01T20:50:05.224Z,71.09
2023-01-01T20:52:37.370Z,70.94
2023-01-01T20:55:12.250Z,71.10
2023-01-01T20:57:44.701Z,71.17
2023-01-01T21:00:18.071Z,71.27
2023-01-01T21:02:50.259Z,71.46
2023-01-01T21:05:22.465Z,71.44
2023-01-01T21:07:54.613Z,71.42
2023-01-01T21:10:26.719Z,71.46
2023-01-01T21:12:58.966Z,71.31
2023-01-01T21:15:31.143Z,71.22
2023-01-01T21:18:06.047Z,71.21
2023-01-01T21:20:38.537Z,71.16
2023-01-01T21:23:16.859Z,71.20
2023-01-01T21:25:52.484Z,71.28
2023-01-01T21:28:28.158Z,71.37
2023-01-01T21:31:04.089Z,71.38
2023-01-01T21:33:37.661Z,71.52
2023-01-01T21:36:17.835Z,71.80
2023-01-01T21:38:51.559Z,71.70
2023-01-01T21:41:25.634Z,71.72
2023-01-01T21:43:59.859Z,71.60
2023-01-01T21:46:42.833Z,71.69
2023-01-01T21:49:20.546Z,71.59
2023-01-01T21:51:57.762Z,71.63
2023-01-01T21:54:34.252Z,71.53
2023-01-01T21:57:18.380Z,71.56
2023-01-01T21:59:51.707Z,71.79
2023-01-01T22:02:38.416Z,71.94
2023-01-01T22:05:30.405Z,72.09
2023-01-01T22:08:24.903Z,72.06
2023-01-01T22:10:57.327Z,71.96
2023-01-01T22:13:30.012Z,72.08
2023-01-01T22:16:03.201Z,71.99
2023-01-01T22:18:40.568Z,71.71
2023-01-01T22:21:18.599Z,71.86
2023-01-01T22:23:53.045Z,71.75
2023-01-01T22:26:28.121Z,71.93
2023-01-01T22:29:03.389Z,72.06
2023-01-01T22:31:41.457Z,72.09
2023-01-01T22:34:23.508Z,72.13
2023-01-01T22:36:56.392Z,72.13
2023-01-01T22:39:32.349Z,71.97
2023-01-01T22:42:05.308Z,72.09
2023-01-01T22:44:37.478Z,71.93
2023-01-01T22:47:14.892Z,72.06
2023-01-01T22:49:51.653Z,71.94
2023-01-01T22:52:23.787Z,71.94
2023-01-01T22:54:55.953Z,72.08
2023-01-01T22:57:28.050Z,71.99
2023-01-01T23:00:00.311Z,72.22
2023-01-01T23:02:32.472Z,72.17
2023-01-01T23:05:04.990Z,72.38
2023-01-01T23:07:41.661Z,72.47
2023-01-01T23:10:16.127Z,72.19
2023-01-01T23:12:48.274Z,72.39
2023-01-01T23:15:38.376Z,72.21
2023-01-01T23:18:11.745Z,72.03
2023-01-01T23:20:43.916Z,72.06
2023-01-01T23:23:16.178Z,72.17
2023-01-01T23:25:48.443Z,72.17
2023-01-01T23:28:21.150Z,72.31
2023-01-01T23:30:53.586Z,72.36
2023-01-01T23:33:25.929Z,72.49
2023-01-01T23:35:58.428Z,72.49
2023-01-01T23:38:31.550Z,72.63
2023-01-01T23:41:03.652Z,72.54
2023-01-01T23:43:42.757Z,72.59
2023-01-01T23:46:16.590Z,72.53
2023-01-01T23:48:49.848Z,72.55
2023-01-01T23:51:22.617Z,72.50
2023-01-01T23:53:54.711Z,72.54
2023-01-01T23:56:26.875Z,72.62
2023-01-01T23:58:59.280Z,72.60
